sensor_id;sensor_type;location;lat;lon;timestamp;P1;durP1;ratioP1;P2;durP2;ratioP2
50066;SDS011;35952;52.524;13.340;2022-12-05T00:00:47;95.87;;;40.23;;
50066;SDS011;35952;52.524;13.340;2022-12-05T00:03:13;96.73;;;41.00;;
50066;SDS011;35952;52.524;13.340;2022-12-05T00:05:39;103.67;;;41.33;;
50066;SDS011;35952;52.524;13.340;2022-12-05T00:08:06;98.90;;;41.05;;
50066;SDS011;35952;52.524;13.340;2022-12-05T00:10:31;112.73;;;44.03;;
50066;SDS011;35952;52.524;13.340;2022-12-05T00:12:59;113.93;;;40.83;;
50066;SDS011;35952;52.524;13.340;2022-12-05T00:15:25;97.27;;;44.50;;
50066;SDS011;35952;52.524;13.340;2022-12-05T00:17:50;108.07;;;42.03;;
50066;SDS011;35952;52.524;13.340;2022-12-05T00:20:16;114.63;;;44.30;;
50066;SDS011;35952;52.524;13.340;2022-12-05T00:22:42;112.90;;;46.40;;
50066;SDS011;35952;52.524;13.340;2022-12-05T00:25:08;104.80;;;38.73;;
50066;SDS011;35952;52.524;13.340;2022-12-05T00:27:34;92.73;;;42.37;;
50066;SDS011;35952;52.524;13.340;2022-12-05T00:29:59;91.07;;;39.30;;
50066;SDS011;35952;52.524;13.340;2022-12-05T00:32:27;105.85;;;42.10;;
50066;SDS011;35952;52.524;13.340;2022-12-05T00:34:53;100.57;;;41.53;;
50066;SDS011;35952;52.524;13.340;2022-12-05T00:37:18;103.10;;;42.33;;
50066;SDS011;35952;52.524;13.340;2022-12-05T00:39:44;103.17;;;42.60;;
50066;SDS011;35952;52.524;13.340;2022-12-05T00:42:10;113.40;;;43.20;;
50066;SDS011;35952;52.524;13.340;2022-12-05T00:44:35;105.23;;;41.17;;
50066;SDS011;35952;52.524;13.340;2022-12-05T00:47:01;100.17;;;43.27;;
50066;SDS011;35952;52.524;13.340;2022-12-05T00:49:27;107.00;;;42.17;;
50066;SDS011;35952;52.524;13.340;2022-12-05T00:51:52;97.73;;;40.77;;
50066;SDS011;35952;52.524;13.340;2022-12-05T00:54:18;94.80;;;41.17;;
50066;SDS011;35952;52.524;13.340;2022-12-05T00:56:44;108.37;;;40.60;;
50066;SDS011;35952;52.524;13.340;2022-12-05T00:59:17;101.50;;;40.30;;
50066;SDS011;35952;52.524;13.340;2022-12-05T01:01:44;106.87;;;44.60;;
50066;SDS011;35952;52.524;13.340;2022-12-05T01:04:12;106.63;;;42.55;;
50066;SDS011;35952;52.524;13.340;2022-12-05T01:06:40;107.22;;;44.33;;
50066;SDS011;35952;52.524;13.340;2022-12-05T01:09:07;97.53;;;41.50;;
50066;SDS011;35952;52.524;13.340;2022-12-05T01:11:34;106.95;;;43.00;;
50066;SDS011;35952;52.524;13.340;2022-12-05T01:14:00;96.13;;;40.43;;
50066;SDS011;35952;52.524;13.340;2022-12-05T01:16:28;90.47;;;40.70;;
50066;SDS011;35952;52.524;13.340;2022-12-05T01:18:57;107.43;;;43.30;;
50066;SDS011;35952;52.524;13.340;2022-12-05T01:21:23;92.00;;;41.75;;
50066;SDS011;35952;52.524;13.340;2022-12-05T01:23:49;94.77;;;40.90;;
50066;SDS011;35952;52.524;13.340;2022-12-05T01:26:15;105.30;;;41.30;;
50066;SDS011;35952;52.524;13.340;2022-12-05T01:28:42;106.00;;;39.88;;
50066;SDS011;35952;52.524;13.340;2022-12-05T01:31:11;94.67;;;41.63;;
50066;SDS011;35952;52.524;13.340;2022-12-05T01:33:46;105.93;;;43.70;;
50066;SDS011;35952;52.524;13.340;2022-12-05T01:36:12;99.33;;;41.80;;
50066;SDS011;35952;52.524;13.340;2022-12-05T01:38:39;94.80;;;42.20;;
50066;SDS011;35952;52.524;13.340;2022-12-05T01:41:08;94.53;;;42.78;;
50066;SDS011;35952;52.524;13.340;2022-12-05T01:43:56;84.83;;;40.90;;
50066;SDS011;35952;52.524;13.340;2022-12-05T01:46:32;86.07;;;40.15;;
50066;SDS011;35952;52.524;13.340;2022-12-05T01:49:04;109.15;;;44.55;;
50066;SDS011;35952;52.524;13.340;2022-12-05T01:51:35;96.25;;;42.22;;
50066;SDS011;35952;52.524;13.340;2022-12-05T01:54:04;111.77;;;42.67;;
50066;SDS011;35952;52.524;13.340;2022-12-05T01:56:31;98.43;;;40.37;;
50066;SDS011;35952;52.524;13.340;2022-12-05T01:58:58;85.43;;;38.42;;
50066;SDS011;35952;52.524;13.340;2022-12-05T02:01:26;97.67;;;41.33;;
50066;SDS011;35952;52.524;13.340;2022-12-05T02:03:52;116.53;;;42.87;;
50066;SDS011;35952;52.524;13.340;2022-12-05T02:06:22;106.43;;;43.53;;
50066;SDS011;35952;52.524;13.340;2022-12-05T02:08:50;99.18;;;39.63;;
50066;SDS011;35952;52.524;13.340;2022-12-05T02:11:20;98.93;;;42.70;;
50066;SDS011;35952;52.524;13.340;2022-12-05T02:13:58;93.13;;;41.03;;
50066;SDS011;35952;52.524;13.340;2022-12-05T02:25:18;115.63;;;42.72;;
50066;SDS011;35952;52.524;13.340;2022-12-05T02:30:17;105.05;;;43.35;;
50066;SDS011;35952;52.524;13.340;2022-12-05T02:35:26;119.60;;;46.33;;
50066;SDS011;35952;52.524;13.340;2022-12-05T02:43:55;114.32;;;43.28;;
50066;SDS011;35952;52.524;13.340;2022-12-05T02:46:29;118.30;;;45.77;;
50066;SDS011;35952;52.524;13.340;2022-12-05T02:48:58;113.22;;;41.97;;
50066;SDS011;35952;52.524;13.340;2022-12-05T02:51:29;107.45;;;42.90;;
50066;SDS011;35952;52.524;13.340;2022-12-05T02:54:00;103.45;;;42.38;;
50066;SDS011;35952;52.524;13.340;2022-12-05T02:56:31;131.32;;;43.45;;
50066;SDS011;35952;52.524;13.340;2022-12-05T02:58:58;105.05;;;46.65;;
50066;SDS011;35952;52.524;13.340;2022-12-05T03:01:25;104.78;;;44.60;;
50066;SDS011;35952;52.524;13.340;2022-12-05T03:03:54;101.60;;;41.27;;
50066;SDS011;35952;52.524;13.340;2022-12-05T03:06:27;103.78;;;41.25;;
50066;SDS011;35952;52.524;13.340;2022-12-05T03:09:07;101.55;;;41.22;;
50066;SDS011;35952;52.524;13.340;2022-12-05T03:12:05;102.17;;;42.37;;
50066;SDS011;35952;52.524;13.340;2022-12-05T03:14:47;93.70;;;38.73;;
50066;SDS011;35952;52.524;13.340;2022-12-05T03:17:34;94.57;;;38.20;;
50066;SDS011;35952;52.524;13.340;2022-12-05T03:20:10;105.72;;;40.42;;
50066;SDS011;35952;52.524;13.340;2022-12-05T03:22:52;90.18;;;38.85;;
50066;SDS011;35952;52.524;13.340;2022-12-05T03:25:34;89.00;;;38.08;;
50066;SDS011;35952;52.524;13.340;2022-12-05T03:28:15;102.43;;;38.92;;
50066;SDS011;35952;52.524;13.340;2022-12-05T03:30:59;88.13;;;39.42;;
50066;SDS011;35952;52.524;13.340;2022-12-05T03:33:30;93.43;;;39.53;;
50066;SDS011;35952;52.524;13.340;2022-12-05T03:39:00;84.22;;;34.92;;
50066;SDS011;35952;52.524;13.340;2022-12-05T03:41:41;71.57;;;36.17;;
50066;SDS011;35952;52.524;13.340;2022-12-05T03:44:16;73.63;;;34.63;;
50066;SDS011;35952;52.524;13.340;2022-12-05T03:46:52;78.32;;;35.08;;
50066;SDS011;35952;52.524;13.340;2022-12-05T03:52:11;81.15;;;35.80;;
50066;SDS011;35952;52.524;13.340;2022-12-05T03:54:45;87.15;;;38.50;;
50066;SDS011;35952;52.524;13.340;2022-12-05T03:57:16;87.00;;;34.55;;
50066;SDS011;35952;52.524;13.340;2022-12-05T04:02:14;75.40;;;34.67;;
50066;SDS011;35952;52.524;13.340;2022-12-05T04:04:47;86.72;;;34.00;;
50066;SDS011;35952;52.524;13.340;2022-12-05T04:07:18;70.07;;;33.63;;
50066;SDS011;35952;52.524;13.340;2022-12-05T04:09:55;93.72;;;36.25;;
50066;SDS011;35952;52.524;13.340;2022-12-05T04:12:27;74.20;;;31.98;;
50066;SDS011;35952;52.524;13.340;2022-12-05T04:15:03;76.30;;;35.15;;
50066;SDS011;35952;52.524;13.340;2022-12-05T04:17:50;91.82;;;35.58;;
50066;SDS011;35952;52.524;13.340;2022-12-05T04:20:36;74.10;;;34.60;;
50066;SDS011;35952;52.524;13.340;2022-12-05T04:23:23;80.95;;;32.88;;
50066;SDS011;35952;52.524;13.340;2022-12-05T04:25:53;72.88;;;33.63;;
50066;SDS011;35952;52.524;13.340;2022-12-05T04:28:33;68.20;;;34.15;;
50066;SDS011;35952;52.524;13.340;2022-12-05T04:31:07;82.18;;;34.53;;
50066;SDS011;35952;52.524;13.340;2022-12-05T04:38:50;81.70;;;32.35;;
50066;SDS011;35952;52.524;13.340;2022-12-05T04:41:27;74.45;;;35.30;;
50066;SDS011;35952;52.524;13.340;2022-12-05T04:43:58;80.82;;;34.72;;
50066;SDS011;35952;52.524;13.340;2022-12-05T04:46:29;88.32;;;38.58;;
50066;SDS011;35952;52.524;13.340;2022-12-05T04:48:55;76.37;;;34.77;;
50066;SDS011;35952;52.524;13.340;2022-12-05T04:51:24;77.13;;;33.70;;
50066;SDS011;35952;52.524;13.340;2022-12-05T04:53:53;76.45;;;33.22;;
50066;SDS011;35952;52.524;13.340;2022-12-05T04:56:23;78.77;;;34.90;;
50066;SDS011;35952;52.524;13.340;2022-12-05T04:58:53;77.15;;;34.17;;
50066;SDS011;35952;52.524;13.340;2022-12-05T05:01:21;74.00;;;32.40;;
50066;SDS011;35952;52.524;13.340;2022-12-05T05:03:56;74.53;;;33.80;;
50066;SDS011;35952;52.524;13.340;2022-12-05T05:06:41;71.53;;;29.27;;
50066;SDS011;35952;52.524;13.340;2022-12-05T05:09:08;71.75;;;32.90;;
50066;SDS011;35952;52.524;13.340;2022-12-05T05:11:34;69.70;;;32.03;;
50066;SDS011;35952;52.524;13.340;2022-12-05T05:14:01;62.40;;;31.42;;
50066;SDS011;35952;52.524;13.340;2022-12-05T05:16:32;73.35;;;31.80;;
50066;SDS011;35952;52.524;13.340;2022-12-05T05:19:03;74.60;;;33.60;;
50066;SDS011;35952;52.524;13.340;2022-12-05T05:21:30;66.05;;;32.88;;
50066;SDS011;35952;52.524;13.340;2022-12-05T05:23:58;70.87;;;32.97;;
50066;SDS011;35952;52.524;13.340;2022-12-05T05:26:25;62.23;;;29.13;;
50066;SDS011;35952;52.524;13.340;2022-12-05T05:28:51;59.75;;;29.15;;
50066;SDS011;35952;52.524;13.340;2022-12-05T05:31:18;66.10;;;31.95;;
50066;SDS011;35952;52.524;13.340;2022-12-05T05:33:47;58.03;;;29.23;;
50066;SDS011;35952;52.524;13.340;2022-12-05T05:36:14;52.10;;;28.00;;
50066;SDS011;35952;52.524;13.340;2022-12-05T05:38:40;58.97;;;27.37;;
50066;SDS011;35952;52.524;13.340;2022-12-05T05:41:14;49.85;;;26.17;;
50066;SDS011;35952;52.524;13.340;2022-12-05T05:43:42;48.65;;;27.05;;
50066;SDS011;35952;52.524;13.340;2022-12-05T05:46:08;64.70;;;28.00;;
50066;SDS011;35952;52.524;13.340;2022-12-05T05:48:34;51.00;;;29.25;;
50066;SDS011;35952;52.524;13.340;2022-12-05T05:51:00;48.42;;;24.88;;
50066;SDS011;35952;52.524;13.340;2022-12-05T05:53:26;42.77;;;23.17;;
50066;SDS011;35952;52.524;13.340;2022-12-05T05:55:52;45.17;;;24.90;;
50066;SDS011;35952;52.524;13.340;2022-12-05T05:58:17;51.53;;;25.63;;
50066;SDS011;35952;52.524;13.340;2022-12-05T06:00:43;45.57;;;25.40;;
50066;SDS011;35952;52.524;13.340;2022-12-05T06:03:09;51.57;;;23.90;;
50066;SDS011;35952;52.524;13.340;2022-12-05T06:05:34;41.83;;;23.73;;
50066;SDS011;35952;52.524;13.340;2022-12-05T06:08:00;46.77;;;22.47;;
50066;SDS011;35952;52.524;13.340;2022-12-05T06:10:26;38.10;;;22.00;;
50066;SDS011;35952;52.524;13.340;2022-12-05T06:12:53;39.37;;;20.60;;
50066;SDS011;35952;52.524;13.340;2022-12-05T06:15:19;37.90;;;22.67;;
50066;SDS011;35952;52.524;13.340;2022-12-05T06:17:44;36.70;;;21.80;;
50066;SDS011;35952;52.524;13.340;2022-12-05T06:20:10;42.37;;;20.60;;
50066;SDS011;35952;52.524;13.340;2022-12-05T06:22:36;44.00;;;22.60;;
50066;SDS011;35952;52.524;13.340;2022-12-05T06:25:01;40.20;;;21.10;;
50066;SDS011;35952;52.524;13.340;2022-12-05T06:27:27;52.33;;;24.80;;
50066;SDS011;35952;52.524;13.340;2022-12-05T06:29:54;30.80;;;20.55;;
50066;SDS011;35952;52.524;13.340;2022-12-05T06:32:19;42.77;;;21.70;;
50066;SDS011;35952;52.524;13.340;2022-12-05T06:34:45;37.13;;;20.07;;
50066;SDS011;35952;52.524;13.340;2022-12-05T06:37:10;28.87;;;18.07;;
50066;SDS011;35952;52.524;13.340;2022-12-05T06:39:36;41.23;;;20.83;;
50066;SDS011;35952;52.524;13.340;2022-12-05T06:42:02;38.00;;;20.87;;
50066;SDS011;35952;52.524;13.340;2022-12-05T06:44:28;47.13;;;21.00;;
50066;SDS011;35952;52.524;13.340;2022-12-05T06:46:53;39.17;;;22.07;;
50066;SDS011;35952;52.524;13.340;2022-12-05T06:49:20;39.20;;;21.93;;
50066;SDS011;35952;52.524;13.340;2022-12-05T06:51:46;41.40;;;22.43;;
50066;SDS011;35952;52.524;13.340;2022-12-05T06:54:12;40.27;;;21.70;;
50066;SDS011;35952;52.524;13.340;2022-12-05T06:56:38;44.13;;;23.20;;
50066;SDS011;35952;52.524;13.340;2022-12-05T06:59:03;42.87;;;22.90;;
50066;SDS011;35952;52.524;13.340;2022-12-05T07:01:29;42.03;;;23.73;;
50066;SDS011;35952;52.524;13.340;2022-12-05T07:04:10;84.80;;;23.87;;
50066;SDS011;35952;52.524;13.340;2022-12-05T07:06:45;38.67;;;21.07;;
50066;SDS011;35952;52.524;13.340;2022-12-05T07:09:12;56.58;;;22.55;;
50066;SDS011;35952;52.524;13.340;2022-12-05T07:11:38;40.63;;;22.40;;
50066;SDS011;35952;52.524;13.340;2022-12-05T07:14:04;50.07;;;22.17;;
50066;SDS011;35952;52.524;13.340;2022-12-05T07:16:30;42.30;;;21.30;;
50066;SDS011;35952;52.524;13.340;2022-12-05T07:18:56;36.40;;;22.30;;
50066;SDS011;35952;52.524;13.340;2022-12-05T07:21:22;38.93;;;20.87;;
50066;SDS011;35952;52.524;13.340;2022-12-05T07:23:48;45.23;;;22.83;;
50066;SDS011;35952;52.524;13.340;2022-12-05T07:26:16;103.73;;;31.80;;
50066;SDS011;35952;52.524;13.340;2022-12-05T07:28:43;39.97;;;22.47;;
50066;SDS011;35952;52.524;13.340;2022-12-05T07:31:10;48.17;;;25.83;;
50066;SDS011;35952;52.524;13.340;2022-12-05T07:33:38;41.50;;;20.87;;
50066;SDS011;35952;52.524;13.340;2022-12-05T07:36:04;38.10;;;22.40;;
50066;SDS011;35952;52.524;13.340;2022-12-05T07:38:32;45.83;;;22.30;;
50066;SDS011;35952;52.524;13.340;2022-12-05T07:40:58;41.53;;;20.67;;
50066;SDS011;35952;52.524;13.340;2022-12-05T07:43:23;47.67;;;24.27;;
50066;SDS011;35952;52.524;13.340;2022-12-05T07:45:49;46.43;;;22.87;;
50066;SDS011;35952;52.524;13.340;2022-12-05T07:48:15;39.97;;;21.27;;
50066;SDS011;35952;52.524;13.340;2022-12-05T07:50:40;43.73;;;23.30;;
50066;SDS011;35952;52.524;13.340;2022-12-05T07:53:06;46.00;;;21.83;;
50066;SDS011;35952;52.524;13.340;2022-12-05T07:55:31;35.97;;;21.40;;
50066;SDS011;35952;52.524;13.340;2022-12-05T07:57:57;37.07;;;20.50;;
50066;SDS011;35952;52.524;13.340;2022-12-05T08:00:22;41.10;;;20.97;;
50066;SDS011;35952;52.524;13.340;2022-12-05T08:02:48;39.30;;;20.40;;
50066;SDS011;35952;52.524;13.340;2022-12-05T08:05:13;42.30;;;20.97;;
50066;SDS011;35952;52.524;13.340;2022-12-05T08:07:39;41.20;;;20.70;;
50066;SDS011;35952;52.524;13.340;2022-12-05T08:10:05;34.27;;;19.17;;
50066;SDS011;35952;52.524;13.340;2022-12-05T08:12:32;34.97;;;20.33;;
50066;SDS011;35952;52.524;13.340;2022-12-05T08:14:57;29.50;;;17.60;;
50066;SDS011;35952;52.524;13.340;2022-12-05T08:17:23;37.70;;;22.67;;
50066;SDS011;35952;52.524;13.340;2022-12-05T08:19:48;34.43;;;18.10;;
50066;SDS011;35952;52.524;13.340;2022-12-05T08:22:14;32.17;;;19.43;;
50066;SDS011;35952;52.524;13.340;2022-12-05T08:24:39;37.13;;;21.60;;
50066;SDS011;35952;52.524;13.340;2022-12-05T08:27:05;30.63;;;18.93;;
50066;SDS011;35952;52.524;13.340;2022-12-05T08:29:31;39.70;;;22.17;;
50066;SDS011;35952;52.524;13.340;2022-12-05T08:31:56;46.83;;;22.70;;
50066;SDS011;35952;52.524;13.340;2022-12-05T08:34:22;40.03;;;20.97;;
50066;SDS011;35952;52.524;13.340;2022-12-05T08:36:48;41.90;;;21.90;;
50066;SDS011;35952;52.524;13.340;2022-12-05T08:39:14;41.67;;;22.20;;
50066;SDS011;35952;52.524;13.340;2022-12-05T08:41:42;44.35;;;21.65;;
50066;SDS011;35952;52.524;13.340;2022-12-05T08:44:09;55.97;;;21.20;;
50066;SDS011;35952;52.524;13.340;2022-12-05T08:46:40;53.17;;;21.50;;
50066;SDS011;35952;52.524;13.340;2022-12-05T08:49:07;48.00;;;22.50;;
50066;SDS011;35952;52.524;13.340;2022-12-05T08:51:34;43.58;;;21.13;;
50066;SDS011;35952;52.524;13.340;2022-12-05T08:54:03;43.90;;;20.97;;
50066;SDS011;35952;52.524;13.340;2022-12-05T08:56:29;34.03;;;21.17;;
50066;SDS011;35952;52.524;13.340;2022-12-05T08:58:57;39.27;;;23.57;;
50066;SDS011;35952;52.524;13.340;2022-12-05T09:01:23;42.83;;;22.50;;
50066;SDS011;35952;52.524;13.340;2022-12-05T09:03:54;38.80;;;22.07;;
50066;SDS011;35952;52.524;13.340;2022-12-05T09:06:21;37.70;;;22.50;;
50066;SDS011;35952;52.524;13.340;2022-12-05T09:08:48;41.40;;;21.73;;
50066;SDS011;35952;52.524;13.340;2022-12-05T09:11:19;32.70;;;21.33;;
50066;SDS011;35952;52.524;13.340;2022-12-05T09:13:48;35.27;;;20.70;;
50066;SDS011;35952;52.524;13.340;2022-12-05T09:16:15;33.20;;;19.60;;
50066;SDS011;35952;52.524;13.340;2022-12-05T09:18:43;37.67;;;20.50;;
50066;SDS011;35952;52.524;13.340;2022-12-05T09:21:28;35.00;;;21.30;;
50066;SDS011;35952;52.524;13.340;2022-12-05T09:23:54;35.03;;;19.67;;
50066;SDS011;35952;52.524;13.340;2022-12-05T09:26:22;37.13;;;19.40;;
50066;SDS011;35952;52.524;13.340;2022-12-05T09:28:49;38.17;;;20.10;;
50066;SDS011;35952;52.524;13.340;2022-12-05T09:31:16;36.73;;;19.37;;
50066;SDS011;35952;52.524;13.340;2022-12-05T09:33:44;34.63;;;20.70;;
50066;SDS011;35952;52.524;13.340;2022-12-05T09:36:13;33.63;;;19.43;;
50066;SDS011;35952;52.524;13.340;2022-12-05T09:38:41;36.23;;;21.53;;
50066;SDS011;35952;52.524;13.340;2022-12-05T09:41:17;34.33;;;19.70;;
50066;SDS011;35952;52.524;13.340;2022-12-05T09:44:40;31.67;;;19.20;;
50066;SDS011;35952;52.524;13.340;2022-12-05T09:55:20;36.20;;;20.50;;
50066;SDS011;35952;52.524;13.340;2022-12-05T09:57:49;38.00;;;20.20;;
50066;SDS011;35952;52.524;13.340;2022-12-05T10:00:16;31.50;;;17.97;;
50066;SDS011;35952;52.524;13.340;2022-12-05T10:05:24;38.07;;;20.63;;
50066;SDS011;35952;52.524;13.340;2022-12-05T10:08:18;38.07;;;20.10;;
50066;SDS011;35952;52.524;13.340;2022-12-05T10:10:59;33.57;;;19.40;;
50066;SDS011;35952;52.524;13.340;2022-12-05T10:13:39;30.17;;;19.30;;
50066;SDS011;35952;52.524;13.340;2022-12-05T10:16:18;35.07;;;19.83;;
50066;SDS011;35952;52.524;13.340;2022-12-05T10:19:02;34.17;;;19.83;;
50066;SDS011;35952;52.524;13.340;2022-12-05T10:21:36;32.07;;;18.50;;
50066;SDS011;35952;52.524;13.340;2022-12-05T10:24:11;35.70;;;20.63;;
50066;SDS011;35952;52.524;13.340;2022-12-05T10:26:45;32.10;;;20.57;;
50066;SDS011;35952;52.524;13.340;2022-12-05T10:29:22;32.47;;;20.43;;
50066;SDS011;35952;52.524;13.340;2022-12-05T10:32:04;34.97;;;20.17;;
50066;SDS011;35952;52.524;13.340;2022-12-05T10:34:42;36.40;;;19.13;;
50066;SDS011;35952;52.524;13.340;2022-12-05T10:37:12;35.40;;;20.73;;
50066;SDS011;35952;52.524;13.340;2022-12-05T10:39:48;38.97;;;20.43;;
50066;SDS011;35952;52.524;13.340;2022-12-05T10:42:22;33.93;;;19.63;;
50066;SDS011;35952;52.524;13.340;2022-12-05T10:44:58;33.47;;;21.43;;
50066;SDS011;35952;52.524;13.340;2022-12-05T10:47:29;29.13;;;18.47;;
50066;SDS011;35952;52.524;13.340;2022-12-05T10:49:57;37.00;;;20.63;;
50066;SDS011;35952;52.524;13.340;2022-12-05T10:52:28;30.33;;;18.20;;
50066;SDS011;35952;52.524;13.340;2022-12-05T10:54:56;30.73;;;20.37;;
50066;SDS011;35952;52.524;13.340;2022-12-05T10:57:27;37.27;;;17.90;;
50066;SDS011;35952;52.524;13.340;2022-12-05T10:59:54;31.30;;;19.93;;
50066;SDS011;35952;52.524;13.340;2022-12-05T11:02:27;34.57;;;19.60;;
50066;SDS011;35952;52.524;13.340;2022-12-05T11:04:55;35.10;;;21.27;;
50066;SDS011;35952;52.524;13.340;2022-12-05T11:07:32;29.10;;;18.77;;
50066;SDS011;35952;52.524;13.340;2022-12-05T11:10:25;36.80;;;20.60;;
50066;SDS011;35952;52.524;13.340;2022-12-05T11:12:58;30.80;;;19.57;;
50066;SDS011;35952;52.524;13.340;2022-12-05T11:15:28;36.57;;;21.63;;
50066;SDS011;35952;52.524;13.340;2022-12-05T11:17:56;34.57;;;20.27;;
50066;SDS011;35952;52.524;13.340;2022-12-05T11:20:40;39.77;;;20.33;;
50066;SDS011;35952;52.524;13.340;2022-12-05T11:23:19;34.17;;;19.67;;
50066;SDS011;35952;52.524;13.340;2022-12-05T11:25:53;34.77;;;19.90;;
50066;SDS011;35952;52.524;13.340;2022-12-05T11:30:55;35.83;;;20.30;;
50066;SDS011;35952;52.524;13.340;2022-12-05T11:33:27;40.20;;;21.77;;
50066;SDS011;35952;52.524;13.340;2022-12-05T11:36:00;35.70;;;21.77;;
50066;SDS011;35952;52.524;13.340;2022-12-05T11:38:38;51.03;;;23.40;;
50066;SDS011;35952;52.524;13.340;2022-12-05T11:44:20;36.00;;;20.87;;
50066;SDS011;35952;52.524;13.340;2022-12-05T11:47:20;38.40;;;21.33;;
50066;SDS011;35952;52.524;13.340;2022-12-05T11:55:29;33.50;;;20.07;;
50066;SDS011;35952;52.524;13.340;2022-12-05T11:58:05;38.67;;;21.90;;
50066;SDS011;35952;52.524;13.340;2022-12-05T12:07:13;41.87;;;22.47;;
50066;SDS011;35952;52.524;13.340;2022-12-05T12:09:57;38.80;;;22.80;;
50066;SDS011;35952;52.524;13.340;2022-12-05T12:15:22;40.77;;;24.17;;
50066;SDS011;35952;52.524;13.340;2022-12-05T12:18:26;47.27;;;23.90;;
50066;SDS011;35952;52.524;13.340;2022-12-05T12:21:13;39.83;;;23.03;;
50066;SDS011;35952;52.524;13.340;2022-12-05T12:29:35;42.13;;;22.47;;
50066;SDS011;35952;52.524;13.340;2022-12-05T12:32:39;40.10;;;23.23;;
50066;SDS011;35952;52.524;13.340;2022-12-05T12:38:49;40.30;;;23.60;;
50066;SDS011;35952;52.524;13.340;2022-12-05T12:46:52;67.57;;;28.57;;
50066;SDS011;35952;52.524;13.340;2022-12-05T12:52:11;55.07;;;27.33;;
50066;SDS011;35952;52.524;13.340;2022-12-05T12:57:28;55.53;;;26.67;;
50066;SDS011;35952;52.524;13.340;2022-12-05T13:00:38;51.80;;;26.60;;
50066;SDS011;35952;52.524;13.340;2022-12-05T13:03:21;56.17;;;28.50;;
50066;SDS011;35952;52.524;13.340;2022-12-05T13:05:57;58.20;;;27.27;;
50066;SDS011;35952;52.524;13.340;2022-12-05T13:08:31;46.10;;;27.00;;
50066;SDS011;35952;52.524;13.340;2022-12-05T13:11:02;57.30;;;27.47;;
50066;SDS011;35952;52.524;13.340;2022-12-05T13:13:35;53.73;;;26.77;;
50066;SDS011;35952;52.524;13.340;2022-12-05T13:16:05;58.90;;;27.30;;
50066;SDS011;35952;52.524;13.340;2022-12-05T13:18:33;55.60;;;29.10;;
50066;SDS011;35952;52.524;13.340;2022-12-05T13:21:00;54.00;;;27.20;;
50066;SDS011;35952;52.524;13.340;2022-12-05T13:23:30;54.00;;;27.80;;
50066;SDS011;35952;52.524;13.340;2022-12-05T13:25:58;54.77;;;26.30;;
50066;SDS011;35952;52.524;13.340;2022-12-05T13:28:27;59.30;;;27.97;;
50066;SDS011;35952;52.524;13.340;2022-12-05T13:30:59;50.47;;;27.30;;
50066;SDS011;35952;52.524;13.340;2022-12-05T13:33:46;52.00;;;28.53;;
50066;SDS011;35952;52.524;13.340;2022-12-05T13:36:14;64.70;;;28.67;;
50066;SDS011;35952;52.524;13.340;2022-12-05T13:39:05;60.80;;;29.87;;
50066;SDS011;35952;52.524;13.340;2022-12-05T13:42:04;55.93;;;27.83;;
50066;SDS011;35952;52.524;13.340;2022-12-05T13:44:39;61.47;;;30.77;;
50066;SDS011;35952;52.524;13.340;2022-12-05T13:47:18;62.70;;;32.30;;
50066;SDS011;35952;52.524;13.340;2022-12-05T13:50:13;67.07;;;31.83;;
50066;SDS011;35952;52.524;13.340;2022-12-05T13:52:51;56.73;;;29.17;;
50066;SDS011;35952;52.524;13.340;2022-12-05T13:55:21;70.77;;;31.33;;
50066;SDS011;35952;52.524;13.340;2022-12-05T13:57:57;71.57;;;31.10;;
50066;SDS011;35952;52.524;13.340;2022-12-05T14:00:28;70.87;;;32.00;;
50066;SDS011;35952;52.524;13.340;2022-12-05T14:03:05;70.03;;;31.93;;
50066;SDS011;35952;52.524;13.340;2022-12-05T14:05:46;76.77;;;32.43;;
50066;SDS011;35952;52.524;13.340;2022-12-05T14:15:46;68.43;;;33.20;;
50066;SDS011;35952;52.524;13.340;2022-12-05T14:32:09;72.50;;;33.30;;
50066;SDS011;35952;52.524;13.340;2022-12-05T14:37:31;78.47;;;34.13;;
50066;SDS011;35952;52.524;13.340;2022-12-05T14:40:00;87.43;;;33.30;;
50066;SDS011;35952;52.524;13.340;2022-12-05T14:42:31;85.87;;;33.77;;
50066;SDS011;35952;52.524;13.340;2022-12-05T14:45:02;79.73;;;34.87;;
50066;SDS011;35952;52.524;13.340;2022-12-05T14:47:56;235.33;;;48.67;;
50066;SDS011;35952;52.524;13.340;2022-12-05T14:50:34;105.17;;;35.30;;
50066;SDS011;35952;52.524;13.340;2022-12-05T14:53:13;86.37;;;33.10;;
50066;SDS011;35952;52.524;13.340;2022-12-05T14:58:38;83.67;;;36.10;;
50066;SDS011;35952;52.524;13.340;2022-12-05T15:01:06;82.23;;;34.90;;
50066;SDS011;35952;52.524;13.340;2022-12-05T15:03:38;91.83;;;35.30;;
50066;SDS011;35952;52.524;13.340;2022-12-05T15:06:09;73.10;;;33.80;;
50066;SDS011;35952;52.524;13.340;2022-12-05T15:08:46;74.63;;;34.30;;
50066;SDS011;35952;52.524;13.340;2022-12-05T15:11:18;78.53;;;35.07;;
50066;SDS011;35952;52.524;13.340;2022-12-05T15:14:02;82.53;;;33.30;;
50066;SDS011;35952;52.524;13.340;2022-12-05T15:16:36;87.73;;;35.90;;
50066;SDS011;35952;52.524;13.340;2022-12-05T15:19:08;79.47;;;35.60;;
50066;SDS011;35952;52.524;13.340;2022-12-05T15:21:42;79.20;;;36.80;;
50066;SDS011;35952;52.524;13.340;2022-12-05T15:24:11;84.00;;;35.43;;
50066;SDS011;35952;52.524;13.340;2022-12-05T15:26:45;86.70;;;35.50;;
50066;SDS011;35952;52.524;13.340;2022-12-05T15:32:12;80.63;;;36.00;;
50066;SDS011;35952;52.524;13.340;2022-12-05T15:34:44;81.27;;;36.37;;
50066;SDS011;35952;52.524;13.340;2022-12-05T15:40:19;90.53;;;34.37;;
50066;SDS011;35952;52.524;13.340;2022-12-05T15:42:48;88.87;;;37.77;;
50066;SDS011;35952;52.524;13.340;2022-12-05T15:47:48;85.93;;;35.97;;
50066;SDS011;35952;52.524;13.340;2022-12-05T15:55:40;97.03;;;38.27;;
50066;SDS011;35952;52.524;13.340;2022-12-05T15:58:28;97.90;;;35.80;;
50066;SDS011;35952;52.524;13.340;2022-12-05T16:03:46;108.03;;;38.40;;
50066;SDS011;35952;52.524;13.340;2022-12-05T16:06:17;93.67;;;35.90;;
50066;SDS011;35952;52.524;13.340;2022-12-05T16:08:49;104.47;;;38.20;;
50066;SDS011;35952;52.524;13.340;2022-12-05T16:11:16;90.47;;;36.80;;
50066;SDS011;35952;52.524;13.340;2022-12-05T16:13:43;93.83;;;36.03;;
50066;SDS011;35952;52.524;13.340;2022-12-05T16:16:16;90.87;;;35.30;;
50066;SDS011;35952;52.524;13.340;2022-12-05T16:18:48;93.10;;;35.27;;
50066;SDS011;35952;52.524;13.340;2022-12-05T16:24:05;105.43;;;36.53;;
50066;SDS011;35952;52.524;13.340;2022-12-05T16:26:37;108.07;;;36.73;;
50066;SDS011;35952;52.524;13.340;2022-12-05T16:29:04;95.47;;;36.70;;
50066;SDS011;35952;52.524;13.340;2022-12-05T16:31:30;121.03;;;39.30;;
50066;SDS011;35952;52.524;13.340;2022-12-05T16:34:02;97.70;;;35.97;;
50066;SDS011;35952;52.524;13.340;2022-12-05T16:36:30;94.30;;;36.67;;
50066;SDS011;35952;52.524;13.340;2022-12-05T16:39:00;97.47;;;37.93;;
50066;SDS011;35952;52.524;13.340;2022-12-05T16:41:34;111.07;;;38.50;;